This is the latest recevied weather packets stored in our database for station/object DH1NAI-6. If no packets are shown the sender has not sent any weather packets the latest 10 day(s).
| Time | Temp. | Humidity | Pressure | Rain* | Wind** | Luminosity | Snow |
|---|---|---|---|---|---|---|---|
| 1788090706 | 22.22° C | 57% | 1013.1 hPa | 0 mm | - | 61 W/m² | - |
| 1788090091 | 21.67° C | 62% | 1013.3 hPa | 0 mm | - | 167 W/m² | - |
| 1788089474 | 22.78° C | 58% | 1013.5 hPa | 0 mm | - | 175 W/m² | - |
| 1788088866 | 22.78° C | 62% | 1013.1 hPa | 0 mm | - | 193 W/m² | - |
| 1788088258 | 21.67° C | 65% | 1013.1 hPa | 0 mm | - | 70 W/m² | - |
| 1788087635 | 20.56° C | 68% | 1013.2 hPa | 0 mm | - | 206 W/m² | - |
| 1788087026 | 21.11° C | 69% | 1013.1 hPa | 0 mm | - | 63 W/m² | - |
| 1788086418 | 21.11° C | 66% | 1013.1 hPa | 0 mm | - | 58 W/m² | - |
| 1788085810 | 21.67° C | 65% | 1013.3 hPa | 0 mm | - | 214 W/m² | - |
| 1788085203 | 21.11° C | 66% | 1013.6 hPa | 0 mm | - | 83 W/m² | - |
| 1788084594 | 20.56° C | 69% | 1013.5 hPa | 0 mm | - | 169 W/m² | - |
| 1788083986 | 20.56° C | 71% | 1013.1 hPa | 0 mm | - | 60 W/m² | - |
| 1788083379 | 20.56° C | 71% | 1013.4 hPa | 0 mm | - | 207 W/m² | - |
| 1788082770 | 19.44° C | 73% | 1013.1 hPa | 0 mm | - | 94 W/m² | - |
| 1788082162 | 20° C | 74% | 1013.3 hPa | 0 mm | - | 39 W/m² | - |
| 1788081555 | 19.44° C | 75% | 1013.2 hPa | 0 mm | - | 51 W/m² | - |
| 1788080947 | 20° C | 75% | 1013.3 hPa | 0 mm | - | 45 W/m² | - |
| 1788080339 | 20.56° C | 75% | 1013.4 hPa | 0 mm | - | 53 W/m² | - |
| 1788079731 | 20° C | 77% | 1013.3 hPa | 0 mm | - | 189 W/m² | - |
| 1788079123 | 18.89° C | 79% | 1013.1 hPa | 0 mm | - | 69 W/m² | - |
| 1788078511 | 19.44° C | 78% | 1013.4 hPa | 0 mm | - | 100 W/m² | - |
| 1788077907 | 19.44° C | 78% | 1013.3 hPa | 0 mm | - | 67 W/m² | - |
| 1788077298 | 18.89° C | 79% | 1013.1 hPa | 0 mm | - | 94 W/m² | - |
| 1788076674 | 19.44° C | 79% | 1013 hPa | 0 mm | - | 62 W/m² | - |
| 1788076051 | 18.89° C | 80% | 1013.1 hPa | 0 mm | - | 105 W/m² | - |
* Rain latest hour (hover to see other rain measurements)
** Current wind speed in m/s (hover to see current wind gust speed)